sensor_id;sensor_type;location;lat;lon;timestamp;pressure;altitude;pressure_sealevel;temperature;humidity
81680;BME280;74989;52.210;5.148;2023-12-20T00:02:03;101619.59;;;7.45;84.37
81680;BME280;74989;52.210;5.148;2023-12-20T00:04:29;101625.84;;;7.51;84.30
81680;BME280;74989;52.210;5.148;2023-12-20T00:06:56;101627.44;;;7.39;84.14
81680;BME280;74989;52.210;5.148;2023-12-20T00:09:23;101627.66;;;7.31;84.35
81680;BME280;74989;52.210;5.148;2023-12-20T00:11:50;101626.22;;;7.22;84.26
81680;BME280;74989;52.210;5.148;2023-12-20T00:14:18;101623.38;;;7.10;85.04
81680;BME280;74989;52.210;5.148;2023-12-20T00:16:45;101607.38;;;7.05;85.32
81680;BME280;74989;52.210;5.148;2023-12-20T00:19:12;101604.75;;;6.99;84.54
81680;BME280;74989;52.210;5.148;2023-12-20T00:21:38;101583.88;;;6.84;84.56
81680;BME280;74989;52.210;5.148;2023-12-20T00:24:06;101613.84;;;7.03;85.09
81680;BME280;74989;52.210;5.148;2023-12-20T00:26:32;101611.59;;;6.93;85.56
81680;BME280;74989;52.210;5.148;2023-12-20T00:28:59;101580.06;;;6.86;85.15
81680;BME280;74989;52.210;5.148;2023-12-20T00:31:27;101576.78;;;6.78;85.17
81680;BME280;74989;52.210;5.148;2023-12-20T00:33:54;101620.09;;;7.08;85.13
81680;BME280;74989;52.210;5.148;2023-12-20T00:36:21;101598.63;;;6.85;84.83
81680;BME280;74989;52.210;5.148;2023-12-20T00:38:48;101572.56;;;6.83;85.32
81680;BME280;74989;52.210;5.148;2023-12-20T00:41:15;101595.03;;;6.99;85.02
81680;BME280;74989;52.210;5.148;2023-12-20T00:43:42;101618.31;;;7.15;84.71
81680;BME280;74989;52.210;5.148;2023-12-20T00:46:09;101590.19;;;6.96;84.72
81680;BME280;74989;52.210;5.148;2023-12-20T00:48:37;101584.28;;;6.87;84.63
81680;BME280;74989;52.210;5.148;2023-12-20T00:51:07;101611.63;;;7.06;85.33
81680;BME280;74989;52.210;5.148;2023-12-20T00:53:34;101602.72;;;7.01;85.87
81680;BME280;74989;52.210;5.148;2023-12-20T00:56:00;101620.31;;;7.13;84.62
81680;BME280;74989;52.210;5.148;2023-12-20T00:58:29;101587.50;;;6.89;85.28
81680;BME280;74989;52.210;5.148;2023-12-20T01:00:56;101589.59;;;7.01;85.32
81680;BME280;74989;52.210;5.148;2023-12-20T01:03:23;101593.19;;;6.93;85.11
81680;BME280;74989;52.210;5.148;2023-12-20T01:05:51;101594.81;;;6.94;85.20
81680;BME280;74989;52.210;5.148;2023-12-20T01:08:18;101588.75;;;6.93;85.51
81680;BME280;74989;52.210;5.148;2023-12-20T01:10:44;101604.53;;;6.93;85.36
81680;BME280;74989;52.210;5.148;2023-12-20T01:13:12;101612.63;;;7.05;85.66
81680;BME280;74989;52.210;5.148;2023-12-20T01:15:38;101575.78;;;6.85;85.46
81680;BME280;74989;52.210;5.148;2023-12-20T01:18:05;101585.31;;;7.00;85.84
81680;BME280;74989;52.210;5.148;2023-12-20T01:20:32;101628.03;;;7.28;86.27
81680;BME280;74989;52.210;5.148;2023-12-20T01:23:00;101600.13;;;7.14;84.93
81680;BME280;74989;52.210;5.148;2023-12-20T01:25:26;101609.25;;;7.24;85.42
81680;BME280;74989;52.210;5.148;2023-12-20T01:27:53;101619.34;;;7.27;85.17
81680;BME280;74989;52.210;5.148;2023-12-20T01:30:19;101607.81;;;7.28;84.87
81680;BME280;74989;52.210;5.148;2023-12-20T01:32:46;101615.09;;;7.26;84.72
81680;BME280;74989;52.210;5.148;2023-12-20T01:35:13;101614.69;;;7.29;85.01
81680;BME280;74989;52.210;5.148;2023-12-20T01:37:40;101605.19;;;7.22;84.40
81680;BME280;74989;52.210;5.148;2023-12-20T01:40:09;101607.00;;;7.28;85.06
81680;BME280;74989;52.210;5.148;2023-12-20T01:42:36;101612.06;;;7.29;84.86
81680;BME280;74989;52.210;5.148;2023-12-20T01:45:03;101604.78;;;7.25;85.33
81680;BME280;74989;52.210;5.148;2023-12-20T01:47:30;101604.38;;;7.28;84.79
81680;BME280;74989;52.210;5.148;2023-12-20T01:49:56;101582.53;;;7.21;84.62
81680;BME280;74989;52.210;5.148;2023-12-20T01:52:24;101590.84;;;7.24;84.75
81680;BME280;74989;52.210;5.148;2023-12-20T01:54:51;101600.53;;;7.30;84.92
81680;BME280;74989;52.210;5.148;2023-12-20T01:57:21;101591.84;;;7.30;85.97
81680;BME280;74989;52.210;5.148;2023-12-20T01:59:48;101596.91;;;7.31;84.98
81680;BME280;74989;52.210;5.148;2023-12-20T02:02:15;101593.28;;;7.45;86.14
81680;BME280;74989;52.210;5.148;2023-12-20T02:04:42;101585.38;;;7.58;84.50
81680;BME280;74989;52.210;5.148;2023-12-20T02:07:08;101560.31;;;7.43;84.88
81680;BME280;74989;52.210;5.148;2023-12-20T02:09:36;101596.31;;;7.69;85.25
81680;BME280;74989;52.210;5.148;2023-12-20T02:12:03;101583.56;;;7.66;84.66
81680;BME280;74989;52.210;5.148;2023-12-20T02:14:31;101590.22;;;7.75;84.24
81680;BME280;74989;52.210;5.148;2023-12-20T02:16:58;101600.75;;;7.68;83.66
81680;BME280;74989;52.210;5.148;2023-12-20T02:19:25;101582.34;;;7.68;84.14
81680;BME280;74989;52.210;5.148;2023-12-20T02:22:06;101585.56;;;7.70;83.74
81680;BME280;74989;52.210;5.148;2023-12-20T02:24:33;101580.53;;;7.69;84.43
81680;BME280;74989;52.210;5.148;2023-12-20T02:27:00;101579.72;;;7.68;84.49
81680;BME280;74989;52.210;5.148;2023-12-20T02:29:26;101584.97;;;7.75;84.85
81680;BME280;74989;52.210;5.148;2023-12-20T02:31:53;101584.13;;;7.81;84.79
81680;BME280;74989;52.210;5.148;2023-12-20T02:34:20;101577.84;;;7.88;84.36
81680;BME280;74989;52.210;5.148;2023-12-20T02:36:46;101567.75;;;7.85;84.60
81680;BME280;74989;52.210;5.148;2023-12-20T02:39:15;101558.47;;;7.70;84.11
81680;BME280;74989;52.210;5.148;2023-12-20T02:41:42;101576.06;;;7.76;83.77
81680;BME280;74989;52.210;5.148;2023-12-20T02:44:09;101557.84;;;7.74;84.06
81680;BME280;74989;52.210;5.148;2023-12-20T02:46:36;101576.88;;;7.83;83.51
81680;BME280;74989;52.210;5.148;2023-12-20T02:49:02;101585.97;;;7.80;83.40
81680;BME280;74989;52.210;5.148;2023-12-20T02:51:29;101584.97;;;7.75;82.67
81680;BME280;74989;52.210;5.148;2023-12-20T02:53:56;101567.75;;;7.79;84.11
81680;BME280;74989;52.210;5.148;2023-12-20T02:56:24;101579.50;;;7.83;83.34
81680;BME280;74989;52.210;5.148;2023-12-20T02:58:50;101576.88;;;7.83;83.71
81680;BME280;74989;52.210;5.148;2023-12-20T03:01:18;101518.81;;;7.51;84.09
81680;BME280;74989;52.210;5.148;2023-12-20T03:03:46;101539.84;;;7.71;83.12
81680;BME280;74989;52.210;5.148;2023-12-20T03:06:16;101560.28;;;7.76;82.65
81680;BME280;74989;52.210;5.148;2023-12-20T03:08:43;101553.00;;;7.71;83.29
81680;BME280;74989;52.210;5.148;2023-12-20T03:11:10;101555.22;;;7.74;82.82
81680;BME280;74989;52.210;5.148;2023-12-20T03:13:38;101538.84;;;7.59;82.54
81680;BME280;74989;52.210;5.148;2023-12-20T03:16:08;101543.50;;;7.63;83.40
81680;BME280;74989;52.210;5.148;2023-12-20T03:18:35;101529.72;;;7.55;83.02
81680;BME280;74989;52.210;5.148;2023-12-20T03:21:02;101540.25;;;7.75;83.85
81680;BME280;74989;52.210;5.148;2023-12-20T03:23:29;101513.53;;;7.64;82.97
81680;BME280;74989;52.210;5.148;2023-12-20T03:25:56;101531.72;;;7.79;83.65
81680;BME280;74989;52.210;5.148;2023-12-20T03:28:22;101531.09;;;7.84;82.40
81680;BME280;74989;52.210;5.148;2023-12-20T03:30:50;101546.09;;;7.83;82.74
81680;BME280;74989;52.210;5.148;2023-12-20T03:33:17;101536.78;;;7.81;82.16
81680;BME280;74989;52.210;5.148;2023-12-20T03:35:44;101525.66;;;7.72;83.33
81680;BME280;74989;52.210;5.148;2023-12-20T03:38:10;101515.97;;;7.66;82.86
81680;BME280;74989;52.210;5.148;2023-12-20T03:40:37;101546.09;;;7.83;82.71
81680;BME280;74989;52.210;5.148;2023-12-20T03:43:04;101551.97;;;7.79;82.26
81680;BME280;74989;52.210;5.148;2023-12-20T03:45:31;101554.81;;;7.77;82.61
81680;BME280;74989;52.210;5.148;2023-12-20T03:47:59;101551.97;;;7.72;82.16
81680;BME280;74989;52.210;5.148;2023-12-20T03:50:26;101549.75;;;7.76;82.43
81680;BME280;74989;52.210;5.148;2023-12-20T03:52:53;101552.78;;;7.79;81.96
81680;BME280;74989;52.210;5.148;2023-12-20T03:55:19;101557.84;;;7.74;82.50
81680;BME280;74989;52.210;5.148;2023-12-20T03:57:46;101568.19;;;7.76;82.95
81680;BME280;74989;52.210;5.148;2023-12-20T04:00:13;101560.47;;;7.87;82.47
81680;BME280;74989;52.210;5.148;2023-12-20T04:02:41;101556.63;;;7.90;82.36
81680;BME280;74989;52.210;5.148;2023-12-20T04:05:10;101550.53;;;7.89;82.42
81680;BME280;74989;52.210;5.148;2023-12-20T04:07:36;101549.31;;;7.92;81.51
81680;BME280;74989;52.210;5.148;2023-12-20T04:10:04;101545.25;;;7.96;81.29
81680;BME280;74989;52.210;5.148;2023-12-20T04:12:31;101534.09;;;8.00;81.58
81680;BME280;74989;52.210;5.148;2023-12-20T04:14:58;101527.25;;;7.93;82.15
81680;BME280;74989;52.210;5.148;2023-12-20T04:17:25;101544.84;;;7.99;81.60
81680;BME280;74989;52.210;5.148;2023-12-20T04:19:51;101537.56;;;8.01;81.87
81680;BME280;74989;52.210;5.148;2023-12-20T04:22:20;101536.13;;;8.05;81.60
81680;BME280;74989;52.210;5.148;2023-12-20T04:24:46;101537.53;;;8.07;81.59
81680;BME280;74989;52.210;5.148;2023-12-20T04:27:13;101531.44;;;8.07;81.41
81680;BME280;74989;52.210;5.148;2023-12-20T04:29:39;101520.72;;;8.08;80.63
81680;BME280;74989;52.210;5.148;2023-12-20T04:32:06;101530.22;;;8.09;81.12
81680;BME280;74989;52.210;5.148;2023-12-20T04:34:33;101531.84;;;8.10;81.09
81680;BME280;74989;52.210;5.148;2023-12-20T04:36:59;101529.41;;;8.15;80.71
81680;BME280;74989;52.210;5.148;2023-12-20T04:39:28;101528.81;;;8.13;80.73
81680;BME280;74989;52.210;5.148;2023-12-20T04:41:55;101532.25;;;8.20;81.47
81680;BME280;74989;52.210;5.148;2023-12-20T04:44:21;101526.16;;;8.26;80.77
81680;BME280;74989;52.210;5.148;2023-12-20T04:46:48;101524.50;;;8.25;80.91
81680;BME280;74989;52.210;5.148;2023-12-20T04:49:15;101517.22;;;8.34;81.18
81680;BME280;74989;52.210;5.148;2023-12-20T04:51:42;101520.66;;;8.28;80.87
81680;BME280;74989;52.210;5.148;2023-12-20T04:54:08;101523.44;;;8.40;80.45
81680;BME280;74989;52.210;5.148;2023-12-20T04:56:38;101519.00;;;8.40;80.47
81680;BME280;74989;52.210;5.148;2023-12-20T04:59:04;101510.88;;;8.42;79.90
81680;BME280;74989;52.210;5.148;2023-12-20T05:01:31;101513.31;;;8.43;79.75
81680;BME280;74989;52.210;5.148;2023-12-20T05:03:58;101487.25;;;8.22;80.14
81680;BME280;74989;52.210;5.148;2023-12-20T05:06:24;101510.50;;;8.38;79.41
81680;BME280;74989;52.210;5.148;2023-12-20T05:08:51;101517.19;;;8.41;80.48
81680;BME280;74989;52.210;5.148;2023-12-20T05:11:18;101511.50;;;8.37;79.98
81680;BME280;74989;52.210;5.148;2023-12-20T05:13:46;101527.69;;;8.47;79.90
81680;BME280;74989;52.210;5.148;2023-12-20T05:16:13;101520.19;;;8.44;79.46
81680;BME280;74989;52.210;5.148;2023-12-20T05:18:43;101514.50;;;8.47;79.52
81680;BME280;74989;52.210;5.148;2023-12-20T05:21:09;101528.84;;;8.58;79.65
81680;BME280;74989;52.210;5.148;2023-12-20T05:23:36;101528.44;;;8.54;79.47
81680;BME280;74989;52.210;5.148;2023-12-20T05:26:03;101533.34;;;8.51;79.04
81680;BME280;74989;52.210;5.148;2023-12-20T05:28:29;101525.00;;;8.54;78.82
81680;BME280;74989;52.210;5.148;2023-12-20T05:30:57;101514.72;;;8.46;78.13
81680;BME280;74989;52.210;5.148;2023-12-20T05:33:25;101512.50;;;8.43;78.90
81680;BME280;74989;52.210;5.148;2023-12-20T05:35:52;101512.28;;;8.44;79.90
81680;BME280;74989;52.210;5.148;2023-12-20T05:38:19;101510.88;;;8.48;79.08
81680;BME280;74989;52.210;5.148;2023-12-20T05:40:46;101505.00;;;8.46;79.49
81680;BME280;74989;52.210;5.148;2023-12-20T05:43:12;101499.94;;;8.45;78.34
81680;BME280;74989;52.210;5.148;2023-12-20T05:45:39;101507.78;;;8.51;79.48
81680;BME280;74989;52.210;5.148;2023-12-20T05:48:07;101502.34;;;8.53;78.68
81680;BME280;74989;52.210;5.148;2023-12-20T05:50:34;101518.31;;;8.51;79.34
81680;BME280;74989;52.210;5.148;2023-12-20T05:53:02;101502.38;;;8.46;78.90
81680;BME280;74989;52.210;5.148;2023-12-20T05:55:28;101505.97;;;8.52;78.73
81680;BME280;74989;52.210;5.148;2023-12-20T05:57:55;101508.78;;;8.57;78.41
81680;BME280;74989;52.210;5.148;2023-12-20T06:00:22;101513.84;;;8.58;78.94
81680;BME280;74989;52.210;5.148;2023-12-20T06:02:48;101500.28;;;8.55;79.01
81680;BME280;74989;52.210;5.148;2023-12-20T06:05:16;101516.06;;;8.61;78.79
81680;BME280;74989;52.210;5.148;2023-12-20T06:07:43;101512.81;;;8.59;79.08
81680;BME280;74989;52.210;5.148;2023-12-20T06:10:10;101515.47;;;8.59;78.86
81680;BME280;74989;52.210;5.148;2023-12-20T06:12:37;101509.72;;;8.69;78.53
81680;BME280;74989;52.210;5.148;2023-12-20T06:15:04;101502.66;;;8.63;78.28
81680;BME280;74989;52.210;5.148;2023-12-20T06:17:31;101505.56;;;8.55;78.65
81680;BME280;74989;52.210;5.148;2023-12-20T06:19:57;101498.47;;;8.55;79.52
81680;BME280;74989;52.210;5.148;2023-12-20T06:22:25;101495.25;;;8.53;78.75
81680;BME280;74989;52.210;5.148;2023-12-20T06:24:52;101497.84;;;8.60;78.86
81680;BME280;74989;52.210;5.148;2023-12-20T06:27:19;101507.09;;;8.69;78.41
81680;BME280;74989;52.210;5.148;2023-12-20T06:29:45;101500.66;;;8.65;78.66
81680;BME280;74989;52.210;5.148;2023-12-20T06:32:12;101508.50;;;8.71;78.33
81680;BME280;74989;52.210;5.148;2023-12-20T06:34:38;101507.47;;;8.72;78.37
81680;BME280;74989;52.210;5.148;2023-12-20T06:37:05;101512.75;;;8.72;77.85
81680;BME280;74989;52.210;5.148;2023-12-20T06:39:33;101505.69;;;8.66;78.11
81680;BME280;74989;52.210;5.148;2023-12-20T06:42:00;101510.31;;;8.71;78.22
81680;BME280;74989;52.210;5.148;2023-12-20T06:44:27;101511.34;;;8.70;78.47
81680;BME280;74989;52.210;5.148;2023-12-20T06:46:53;101499.84;;;8.64;78.77
81680;BME280;74989;52.210;5.148;2023-12-20T06:49:20;101490.09;;;8.65;79.50
81680;BME280;74989;52.210;5.148;2023-12-20T06:51:47;101495.69;;;8.75;78.66
81680;BME280;74989;52.210;5.148;2023-12-20T06:54:13;101504.81;;;8.79;77.82
81680;BME280;74989;52.210;5.148;2023-12-20T06:56:41;101500.97;;;8.75;78.92
81680;BME280;74989;52.210;5.148;2023-12-20T06:59:08;101490.22;;;8.76;79.20
81680;BME280;74989;52.210;5.148;2023-12-20T07:01:35;101496.47;;;8.82;78.28
81680;BME280;74989;52.210;5.148;2023-12-20T07:04:01;101499.91;;;8.82;79.28
81680;BME280;74989;52.210;5.148;2023-12-20T07:06:28;101497.44;;;8.87;78.49
81680;BME280;74989;52.210;5.148;2023-12-20T07:08:54;101489.78;;;8.79;78.29
81680;BME280;74989;52.210;5.148;2023-12-20T07:11:21;101481.09;;;8.79;77.92
81680;BME280;74989;52.210;5.148;2023-12-20T07:13:49;101492.66;;;8.78;79.17
81680;BME280;74989;52.210;5.148;2023-12-20T07:16:16;101479.41;;;8.84;78.61
81680;BME280;74989;52.210;5.148;2023-12-20T07:18:43;101497.31;;;8.76;78.73
81680;BME280;74989;52.210;5.148;2023-12-20T07:21:09;101477.22;;;8.81;78.28
81680;BME280;74989;52.210;5.148;2023-12-20T07:23:36;101475.44;;;8.75;78.36
81680;BME280;74989;52.210;5.148;2023-12-20T07:26:03;101477.06;;;8.70;78.14
81680;BME280;74989;52.210;5.148;2023-12-20T07:28:30;101466.72;;;8.75;78.73
81680;BME280;74989;52.210;5.148;2023-12-20T07:30:58;101464.88;;;8.75;77.97
81680;BME280;74989;52.210;5.148;2023-12-20T07:33:25;101463.28;;;8.74;78.07
81680;BME280;74989;52.210;5.148;2023-12-20T07:35:51;101460.03;;;8.72;78.76
81680;BME280;74989;52.210;5.148;2023-12-20T07:38:18;101461.25;;;8.76;77.73
81680;BME280;74989;52.210;5.148;2023-12-20T07:40:45;101457.50;;;8.59;78.66
81680;BME280;74989;52.210;5.148;2023-12-20T07:43:11;101475.25;;;8.70;78.92
81680;BME280;74989;52.210;5.148;2023-12-20T07:45:38;101475.84;;;8.72;78.16
81680;BME280;74989;52.210;5.148;2023-12-20T07:48:07;101489.06;;;8.66;79.90
81680;BME280;74989;52.210;5.148;2023-12-20T07:50:34;101483.16;;;8.70;78.66
81680;BME280;74989;52.210;5.148;2023-12-20T07:53:01;101494.47;;;8.77;78.65
81680;BME280;74989;52.210;5.148;2023-12-20T07:55:28;101493.66;;;8.77;79.34
81680;BME280;74989;52.210;5.148;2023-12-20T07:57:55;101492.06;;;8.76;78.84
81680;BME280;74989;52.210;5.148;2023-12-20T08:00:22;101498.09;;;8.83;78.66
81680;BME280;74989;52.210;5.148;2023-12-20T08:02:49;101498.44;;;8.86;79.58
81680;BME280;74989;52.210;5.148;2023-12-20T08:05:17;101509.97;;;8.92;78.41
81680;BME280;74989;52.210;5.148;2023-12-20T08:07:44;101511.81;;;8.91;78.44
81680;BME280;74989;52.210;5.148;2023-12-20T08:10:10;101513.44;;;8.92;78.72
81680;BME280;74989;52.210;5.148;2023-12-20T08:12:38;101506.53;;;8.91;79.50
81680;BME280;74989;52.210;5.148;2023-12-20T08:15:06;101511.75;;;8.98;79.25
81680;BME280;74989;52.210;5.148;2023-12-20T08:17:32;101511.75;;;8.98;78.44
81680;BME280;74989;52.210;5.148;2023-12-20T08:19:59;101497.19;;;8.95;77.75
81680;BME280;74989;52.210;5.148;2023-12-20T08:22:27;101505.88;;;8.96;78.10
81680;BME280;74989;52.210;5.148;2023-12-20T08:24:54;101494.34;;;8.97;77.67
81680;BME280;74989;52.210;5.148;2023-12-20T08:27:21;101504.41;;;9.07;77.16
81680;BME280;74989;52.210;5.148;2023-12-20T08:29:47;101497.31;;;9.07;78.71
81680;BME280;74989;52.210;5.148;2023-12-20T08:32:15;101501.53;;;9.08;78.77
81680;BME280;74989;52.210;5.148;2023-12-20T08:34:41;101494.22;;;9.10;77.84
81680;BME280;74989;52.210;5.148;2023-12-20T08:37:08;101495.63;;;9.13;77.94
81680;BME280;74989;52.210;5.148;2023-12-20T08:39:36;101497.25;;;9.14;77.46
81680;BME280;74989;52.210;5.148;2023-12-20T08:42:03;101486.13;;;9.12;77.84
81680;BME280;74989;52.210;5.148;2023-12-20T08:44:30;101495.03;;;9.11;78.48
81680;BME280;74989;52.210;5.148;2023-12-20T08:46:57;101497.25;;;9.14;78.47
81680;BME280;74989;52.210;5.148;2023-12-20T08:49:23;101492.34;;;9.17;78.25
81680;BME280;74989;52.210;5.148;2023-12-20T08:51:50;101495.22;;;9.16;78.51
81680;BME280;74989;52.210;5.148;2023-12-20T08:54:17;101493.97;;;9.18;78.01
81680;BME280;74989;52.210;5.148;2023-12-20T08:56:46;101499.84;;;9.20;77.99
81680;BME280;74989;52.210;5.148;2023-12-20T08:59:12;101487.88;;;9.18;77.35
81680;BME280;74989;52.210;5.148;2023-12-20T09:01:39;101497.25;;;9.14;78.48
81680;BME280;74989;52.210;5.148;2023-12-20T09:04:06;101497.19;;;9.20;78.01
81680;BME280;74989;52.210;5.148;2023-12-20T09:06:32;101498.81;;;9.21;78.67
81680;BME280;74989;52.210;5.148;2023-12-20T09:08:59;101490.47;;;9.24;78.38
81680;BME280;74989;52.210;5.148;2023-12-20T09:11:25;101487.81;;;9.24;78.20
81680;BME280;74989;52.210;5.148;2023-12-20T09:13:54;101498.59;;;9.23;78.04
81680;BME280;74989;52.210;5.148;2023-12-20T09:16:20;101490.25;;;9.26;78.36
81680;BME280;74989;52.210;5.148;2023-12-20T09:18:47;101487.56;;;9.32;78.01
81680;BME280;74989;52.210;5.148;2023-12-20T09:21:14;101484.34;;;9.30;77.49
81680;BME280;74989;52.210;5.148;2023-12-20T09:23:40;101489.16;;;9.33;77.66
81680;BME280;74989;52.210;5.148;2023-12-20T09:26:07;101468.88;;;9.34;77.38
81680;BME280;74989;52.210;5.148;2023-12-20T09:28:34;101487.50;;;9.39;76.75
81680;BME280;74989;52.210;5.148;2023-12-20T09:31:04;101491.78;;;9.33;77.48
81680;BME280;74989;52.210;5.148;2023-12-20T09:33:32;101492.50;;;9.47;76.83
81680;BME280;74989;52.210;5.148;2023-12-20T09:35:58;101489.22;;;9.51;76.65
81680;BME280;74989;52.210;5.148;2023-12-20T09:38:25;101491.19;;;9.56;76.42
81680;BME280;74989;52.210;5.148;2023-12-20T09:40:52;101479.00;;;9.55;77.07
81680;BME280;74989;52.210;5.148;2023-12-20T09:43:20;101491.28;;;9.67;76.65
81680;BME280;74989;52.210;5.148;2023-12-20T09:45:47;101494.72;;;9.68;76.11
81680;BME280;74989;52.210;5.148;2023-12-20T09:48:17;101483.44;;;9.61;75.63
81680;BME280;74989;52.210;5.148;2023-12-20T09:50:44;101496.75;;;9.66;77.32
81680;BME280;74989;52.210;5.148;2023-12-20T09:53:15;101491.44;;;9.73;75.87
81680;BME280;74989;52.210;5.148;2023-12-20T09:55:42;101501.53;;;9.76;76.34
81680;BME280;74989;52.210;5.148;2023-12-20T09:58:09;101514.72;;;9.76;76.06
81680;BME280;74989;52.210;5.148;2023-12-20T10:00:35;101501.69;;;9.81;76.56
81680;BME280;74989;52.210;5.148;2023-12-20T10:03:03;101493.25;;;9.72;76.02
81680;BME280;74989;52.210;5.148;2023-12-20T10:05:34;101504.75;;;9.78;75.80
81680;BME280;74989;52.210;5.148;2023-12-20T10:08:01;101509.44;;;9.76;75.65
81680;BME280;74989;52.210;5.148;2023-12-20T10:10:28;101500.53;;;9.77;75.93
81680;BME280;74989;52.210;5.148;2023-12-20T10:13:02;101505.22;;;9.75;76.35
81680;BME280;74989;52.210;5.148;2023-12-20T10:15:30;101503.97;;;9.77;75.89
81680;BME280;74989;52.210;5.148;2023-12-20T10:17:57;101497.00;;;9.83;76.69
81680;BME280;74989;52.210;5.148;2023-12-20T10:20:24;101506.88;;;9.87;76.78
81680;BME280;74989;52.210;5.148;2023-12-20T10:22:52;101494.66;;;9.93;75.23
81680;BME280;74989;52.210;5.148;2023-12-20T10:25:20;101499.13;;;9.92;75.71
81680;BME280;74989;52.210;5.148;2023-12-20T10:27:47;101491.00;;;9.94;75.58
81680;BME280;74989;52.210;5.148;2023-12-20T10:30:14;101493.84;;;10.10;74.98
81680;BME280;74989;52.210;5.148;2023-12-20T10:32:40;101495.69;;;10.10;75.02
81680;BME280;74989;52.210;5.148;2023-12-20T10:35:08;101496.94;;;10.25;75.13
81680;BME280;74989;52.210;5.148;2023-12-20T10:37:35;101471.75;;;10.23;74.94
81680;BME280;74989;52.210;5.148;2023-12-20T10:40:04;101482.06;;;10.43;73.58
81680;BME280;74989;52.210;5.148;2023-12-20T10:42:32;101487.59;;;10.53;74.30
81680;BME280;74989;52.210;5.148;2023-12-20T10:44:59;101475.53;;;10.45;73.46
81680;BME280;74989;52.210;5.148;2023-12-20T10:47:26;101484.94;;;10.41;73.16
81680;BME280;74989;52.210;5.148;2023-12-20T10:49:54;101488.38;;;10.42;73.63
81680;BME280;74989;52.210;5.148;2023-12-20T10:52:23;101479.16;;;10.32;73.73
81680;BME280;74989;52.210;5.148;2023-12-20T10:54:50;101464.41;;;10.25;74.55
81680;BME280;74989;52.210;5.148;2023-12-20T10:57:18;101472.03;;;10.33;74.11
81680;BME280;74989;52.210;5.148;2023-12-20T10:59:45;101477.09;;;10.64;73.15
81680;BME280;74989;52.210;5.148;2023-12-20T11:02:15;101466.72;;;11.27;71.13
81680;BME280;74989;52.210;5.148;2023-12-20T11:04:47;101463.13;;;11.56;71.41
81680;BME280;74989;52.210;5.148;2023-12-20T11:07:20;101465.25;;;12.06;70.50
81680;BME280;74989;52.210;5.148;2023-12-20T11:09:56;101459.19;;;12.50;69.55
81680;BME280;74989;52.210;5.148;2023-12-20T11:12:35;101453.94;;;13.33;66.69
81680;BME280;74989;52.210;5.148;2023-12-20T11:15:05;101446.94;;;14.09;64.79
81680;BME280;74989;52.210;5.148;2023-12-20T11:17:33;101428.22;;;13.99;63.32
81680;BME280;74989;52.210;5.148;2023-12-20T11:20:09;101442.56;;;13.54;63.57
81680;BME280;74989;52.210;5.148;2023-12-20T11:22:39;101447.81;;;12.99;64.63
81680;BME280;74989;52.210;5.148;2023-12-20T11:25:08;101457.81;;;12.48;65.94
81680;BME280;74989;52.210;5.148;2023-12-20T11:27:40;101448.84;;;12.20;66.37
81680;BME280;74989;52.210;5.148;2023-12-20T11:30:08;101452.66;;;11.85;67.92
81680;BME280;74989;52.210;5.148;2023-12-20T11:32:36;101453.59;;;11.67;68.78
81680;BME280;74989;52.210;5.148;2023-12-20T11:35:17;101439.31;;;11.56;67.27
81680;BME280;74989;52.210;5.148;2023-12-20T11:37:45;101441.66;;;11.41;69.81
81680;BME280;74989;52.210;5.148;2023-12-20T11:40:14;101444.63;;;11.33;69.93
81680;BME280;74989;52.210;5.148;2023-12-20T11:42:44;101444.06;;;11.31;70.06
81680;BME280;74989;52.210;5.148;2023-12-20T11:45:13;101447.72;;;11.30;70.11
81680;BME280;74989;52.210;5.148;2023-12-20T11:47:42;101430.59;;;11.21;70.45
81680;BME280;74989;52.210;5.148;2023-12-20T11:50:09;101421.06;;;11.20;70.58
81680;BME280;74989;52.210;5.148;2023-12-20T11:52:36;101419.78;;;11.34;69.93
81680;BME280;74989;52.210;5.148;2023-12-20T11:55:03;101408.72;;;11.37;69.79
81680;BME280;74989;52.210;5.148;2023-12-20T11:57:30;101417.72;;;11.36;69.80
81680;BME280;74989;52.210;5.148;2023-12-20T11:59:58;101398.63;;;11.23;70.17
81680;BME280;74989;52.210;5.148;2023-12-20T12:02:25;101402.53;;;11.20;70.85
81680;BME280;74989;52.210;5.148;2023-12-20T12:04:52;101409.88;;;11.06;70.71
81680;BME280;74989;52.210;5.148;2023-12-20T12:07:19;101417.94;;;11.12;71.44
81680;BME280;74989;52.210;5.148;2023-12-20T12:09:46;101405.28;;;11.02;71.61
81680;BME280;74989;52.210;5.148;2023-12-20T12:12:16;101397.47;;;10.95;70.88
81680;BME280;74989;52.210;5.148;2023-12-20T12:14:44;101428.88;;;11.15;71.35
81680;BME280;74989;52.210;5.148;2023-12-20T12:17:15;101432.91;;;11.18;71.56
81680;BME280;74989;52.210;5.148;2023-12-20T12:19:42;101432.91;;;11.18;70.79
81680;BME280;74989;52.210;5.148;2023-12-20T12:22:16;101404.72;;;11.12;70.37
81680;BME280;74989;52.210;5.148;2023-12-20T12:24:45;101419.56;;;11.24;71.01
81680;BME280;74989;52.210;5.148;2023-12-20T12:27:12;101407.59;;;11.10;70.88
81680;BME280;74989;52.210;5.148;2023-12-20T12:29:39;101384.81;;;10.97;72.09
81680;BME280;74989;52.210;5.148;2023-12-20T12:32:06;101393.00;;;11.07;71.91
81680;BME280;74989;52.210;5.148;2023-12-20T12:34:35;101380.34;;;10.98;72.61
81680;BME280;74989;52.210;5.148;2023-12-20T12:37:07;101371.28;;;10.82;72.49
81680;BME280;74989;52.210;5.148;2023-12-20T12:39:34;101390.47;;;10.89;72.29
81680;BME280;74989;52.210;5.148;2023-12-20T12:42:00;101364.59;;;10.80;72.54
81680;BME280;74989;52.210;5.148;2023-12-20T12:44:27;101384.03;;;10.85;73.00
81680;BME280;74989;52.210;5.148;2023-12-20T12:46:54;101389.78;;;10.82;72.26
81680;BME280;74989;52.210;5.148;2023-12-20T12:49:20;101389.28;;;10.74;73.00
81680;BME280;74989;52.210;5.148;2023-12-20T12:51:49;101382.97;;;10.75;72.63
81680;BME280;74989;52.210;5.148;2023-12-20T12:54:15;101387.94;;;10.71;72.77
81680;BME280;74989;52.210;5.148;2023-12-20T12:56:46;101374.47;;;10.61;73.01
81680;BME280;74989;52.210;5.148;2023-12-20T12:59:16;101382.59;;;10.60;72.57